Time;durP1;ratioP1;P1;durP2;ratioP2;P2;SDS_P1;SDS_P2;PMS_P1;PMS_P2;Temp;Humidity;BMP_temperature;BMP_pressure;BME280_temperature;BME280_humidity;BME280_pressure;Samples;Min_cycle;Max_cycle;Signal;HPM_P1;HPM_P2
2023/06/02 00:04:46;;;;;;;18.33;9.57;;;;;;;8.92;100.00;96596.50;10539618;28;20194;-65
2023/06/02 00:09:46;;;;;;;15.57;8.57;;;;;;;8.95;100.00;96591.00;10539412;28;20262;-66
2023/06/02 00:14:48;;;;;;;14.47;8.70;;;;;;;8.81;100.00;96594.94;10539103;28;20183;-65
2023/06/02 00:19:48;;;;;;;13.00;8.80;;;;;;;8.71;100.00;96595.03;10537859;28;20233;-65
2023/06/02 00:24:48;;;;;;;13.27;8.30;;;;;;;8.71;100.00;96584.56;10538955;28;20233;-65
2023/06/02 00:29:50;;;;;;;17.80;9.60;;;;;;;8.67;100.00;96592.84;10538434;28;20202;-65
2023/06/02 00:34:50;;;;;;;19.67;9.17;;;;;;;8.54;100.00;96598.41;10538720;28;20265;-65
2023/06/02 00:39:50;;;;;;;13.03;9.30;;;;;;;8.53;100.00;96595.00;10537967;28;20305;-64
2023/06/02 00:44:51;;;;;;;21.20;10.10;;;;;;;8.44;100.00;96593.25;10538352;28;20240;-66
2023/06/02 00:49:51;;;;;;;21.00;9.07;;;;;;;8.44;100.00;96595.88;10515802;28;20206;-65
2023/06/02 00:54:53;;;;;;;19.37;9.40;;;;;;;8.50;100.00;96595.28;10537892;28;20202;-65
2023/06/02 00:59:53;;;;;;;15.40;9.60;;;;;;;8.49;100.00;96596.25;10537477;28;20226;-65
2023/06/02 01:04:57;;;;;;;15.00;8.87;;;;;;;8.40;100.00;96595.28;10537331;28;20227;-65
2023/06/02 01:10:00;;;;;;;17.10;8.27;;;;;;;8.46;100.00;96600.94;10565950;22;20329;-61
2023/06/02 01:15:00;;;;;;;19.73;9.33;;;;;;;8.23;100.00;96593.47;10558551;28;20196;-62
2023/06/02 01:20:04;;;;;;;17.70;9.30;;;;;;;8.30;100.00;96583.25;10578631;28;20650;-62
2023/06/02 01:25:19;;;;;;;15.73;8.90;;;;;;;8.28;100.00;96588.63;10560545;28;20182;-62
2023/06/02 01:30:19;;;;;;;16.53;9.23;;;;;;;8.20;100.00;96591.94;10559844;28;20213;-62
2023/06/02 01:35:20;;;;;;;17.17;9.53;;;;;;;8.16;100.00;96595.84;10560306;28;20562;-60
2023/06/02 01:40:23;;;;;;;19.40;10.60;;;;;;;8.18;100.00;96599.13;10578226;28;20254;-60
2023/06/02 01:45:24;;;;;;;21.60;10.90;;;;;;;8.10;100.00;96598.19;10560021;28;20178;-62
2023/06/02 01:50:24;;;;;;;18.37;10.30;;;;;;;7.99;100.00;96594.81;10577817;28;20197;-60
2023/06/02 01:55:25;;;;;;;26.83;12.03;;;;;;;7.88;100.00;96594.97;10559591;28;20215;-62
2023/06/02 02:00:27;;;;;;;16.07;10.23;;;;;;;7.88;100.00;96599.38;10559393;28;20255;-61
2023/06/02 02:05:27;;;;;;;19.17;10.17;;;;;;;7.79;100.00;96598.44;10577767;28;20244;-62
2023/06/02 02:10:28;;;;;;;19.30;10.63;;;;;;;7.70;100.00;96599.28;10577142;28;20363;-62
2023/06/02 02:15:28;;;;;;;12.73;9.93;;;;;;;7.81;100.00;96591.28;10577558;28;20228;-62
2023/06/02 02:20:29;;;;;;;21.03;10.70;;;;;;;7.77;100.00;96592.53;10577040;28;20642;-60
2023/06/02 02:25:30;;;;;;;16.20;9.43;;;;;;;7.63;100.00;96599.03;10577346;28;20276;-61
2023/06/02 02:30:30;;;;;;;18.70;9.80;;;;;;;7.66;100.00;96599.56;10541750;28;20233;-60
2023/06/02 02:35:31;;;;;;;20.73;10.53;;;;;;;7.56;100.00;96597.94;10558923;28;20258;-60
2023/06/02 02:40:33;;;;;;;16.63;10.67;;;;;;;7.52;100.00;96599.19;10558859;28;20242;-61
2023/06/02 02:45:34;;;;;;;22.37;11.53;;;;;;;7.40;100.00;96598.53;10566568;28;20182;-61
2023/06/02 02:50:34;;;;;;;25.87;11.27;;;;;;;7.52;100.00;96614.81;10531276;28;20207;-61
2023/06/02 02:55:37;;;;;;;22.27;10.70;;;;;;;7.79;100.00;96609.69;10542118;28;20270;-62
2023/06/02 03:00:37;;;;;;;29.23;12.13;;;;;;;7.81;100.00;96623.41;10523873;28;20211;-61
2023/06/02 03:05:41;;;;;;;18.23;10.53;;;;;;;8.00;100.00;96616.50;10524375;28;20195;-61
2023/06/02 03:10:42;;;;;;;18.63;11.40;;;;;;;8.12;100.00;96624.97;10523344;28;20231;-62
2023/06/02 03:15:42;;;;;;;22.87;10.80;;;;;;;8.31;100.00;96621.44;10523608;28;20190;-62
2023/06/02 03:20:43;;;;;;;22.50;12.50;;;;;;;8.35;100.00;96623.63;10541017;28;20294;-62
2023/06/02 03:25:44;;;;;;;24.00;11.77;;;;;;;8.27;100.00;96622.69;10523167;28;20585;-61
2023/06/02 03:30:44;;;;;;;20.37;11.67;;;;;;;8.36;100.00;96607.00;10540911;28;20297;-61
2023/06/02 03:35:45;;;;;;;20.77;11.07;;;;;;;8.35;100.00;96614.97;10522621;28;20568;-61
2023/06/02 03:40:46;;;;;;;16.93;9.67;;;;;;;8.43;100.00;96617.69;10522507;28;20236;-61
2023/06/02 03:45:46;;;;;;;28.90;11.03;;;;;;;8.49;100.00;96624.97;10540230;28;20210;-62
2023/06/02 03:50:49;;;;;;;20.20;10.90;;;;;;;8.67;100.00;96632.03;10522229;28;20217;-61
2023/06/02 03:55:50;;;;;;;18.00;9.70;;;;;;;8.70;100.00;96629.13;10521426;28;20194;-62
2023/06/02 04:00:51;;;;;;;17.90;9.60;;;;;;;8.68;100.00;96628.41;10521915;28;20336;-62
2023/06/02 04:05:51;;;;;;;22.80;11.77;;;;;;;8.74;100.00;96636.50;10521536;28;20687;-62
2023/06/02 04:10:52;;;;;;;31.50;11.73;;;;;;;8.86;100.00;96638.91;10538977;28;20609;-61
2023/06/02 04:15:52;;;;;;;22.13;11.27;;;;;;;8.98;100.00;96637.72;10521813;28;20191;-62
2023/06/02 04:20:53;;;;;;;15.90;9.93;;;;;;;9.05;100.00;96638.78;10520657;28;20206;-63
2023/06/02 04:25:53;;;;;;;15.83;8.87;;;;;;;9.13;100.00;96647.66;10538890;28;20187;-61
2023/06/02 04:30:55;;;;;;;18.43;9.67;;;;;;;9.26;100.00;96643.72;10520307;28;20702;-62
2023/06/02 04:35:57;;;;;;;24.80;10.50;;;;;;;9.21;100.00;96647.75;10520506;28;20669;-61
2023/06/02 04:41:01;;;;;;;21.13;8.43;;;;;;;9.23;100.00;96649.25;10520198;28;20297;-62
2023/06/02 04:46:01;;;;;;;21.17;8.53;;;;;;;9.31;100.00;96643.28;10519679;28;20182;-63
2023/06/02 04:51:03;;;;;;;26.23;8.47;;;;;;;9.30;100.00;96648.66;10519591;28;20210;-62
2023/06/02 04:56:03;;;;;;;22.00;9.57;;;;;;;8.81;100.00;96652.41;10537463;28;20182;-61
2023/06/02 05:01:05;;;;;;;24.47;9.00;;;;;;;8.97;100.00;96648.31;10519015;28;20212;-60
2023/06/02 05:06:06;;;;;;;20.10;8.13;;;;;;;9.13;100.00;96650.25;10536859;28;20277;-62
2023/06/02 05:11:07;;;;;;;21.00;7.60;;;;;;;9.24;100.00;96650.88;10518484;28;20233;-62
2023/06/02 05:16:07;;;;;;;34.83;8.50;;;;;;;9.40;100.00;96651.97;10518923;28;20186;-62
2023/06/02 05:21:08;;;;;;;17.63;7.37;;;;;;;9.71;100.00;96656.78;10536495;28;20199;-62
2023/06/02 05:26:09;;;;;;;20.23;7.80;;;;;;;9.59;100.00;96662.28;10518596;28;20198;-62
2023/06/02 05:31:10;;;;;;;23.90;8.00;;;;;;;9.57;100.00;96671.25;10536171;28;20309;-62
2023/06/02 05:36:11;;;;;;;25.63;8.43;;;;;;;9.48;100.00;96666.91;10517884;28;20659;-62
2023/06/02 05:41:12;;;;;;;20.90;7.27;;;;;;;9.76;100.00;96672.88;10518026;28;20206;-62
2023/06/02 05:46:12;;;;;;;23.47;7.13;;;;;;;9.94;100.00;96667.59;10517602;28;20182;-62
2023/06/02 05:51:13;;;;;;;24.33;7.68;;;;;;;10.18;100.00;96664.28;10557189;27;20203;-62
2023/06/02 05:56:13;;;;;;;20.43;6.70;;;;;;;10.31;100.00;96675.19;10577218;28;20220;-62
2023/06/02 06:01:14;;;;;;;17.10;6.90;;;;;;;10.07;100.00;96680.28;10577402;28;20687;-62
2023/06/02 06:06:15;;;;;;;16.83;7.33;;;;;;;10.03;100.00;96679.78;10559393;28;20201;-62
2023/06/02 06:11:16;;;;;;;18.00;7.10;;;;;;;9.84;100.00;96691.25;10558289;28;20230;-61
2023/06/02 06:16:17;;;;;;;25.83;7.77;;;;;;;9.48;100.00;96699.13;10562568;28;20304;-62
2023/06/02 06:21:17;;;;;;;22.67;6.93;;;;;;;9.91;100.00;96691.47;10567539;28;20284;-62
2023/06/02 06:26:19;;;;;;;20.85;7.30;;;;;;;10.61;100.00;96686.16;10585898;28;20190;-63
2023/06/02 06:31:20;;;;;;;20.98;8.13;;;;;;;10.73;100.00;96670.97;10585533;28;20201;-63
2023/06/02 06:36:20;;;;;;;16.65;6.93;;;;;;;10.28;100.00;96677.31;10566962;28;20205;-63
2023/06/02 06:41:22;;;;;;;25.20;6.78;;;;;;;11.42;100.00;96663.75;10585170;28;20206;-63
2023/06/02 06:46:23;;;;;;;14.02;6.43;;;;;;;11.98;98.08;96655.22;10584854;28;20190;-64
2023/06/02 06:51:24;;;;;;;21.70;7.88;;;;;;;10.50;100.00;96689.03;10566490;28;20211;-62
2023/06/02 06:56:25;;;;;;;15.88;7.43;;;;;;;10.98;100.00;96692.00;10564989;28;20209;-62
2023/06/02 07:01:26;;;;;;;23.45;8.07;;;;;;;10.65;100.00;96702.38;10563139;28;20642;-60
2023/06/02 07:06:26;;;;;;;24.08;7.65;;;;;;;11.10;100.00;96703.84;10583086;28;20281;-62
2023/06/02 07:11:27;;;;;;;23.48;7.60;;;;;;;11.84;100.00;96696.06;10594586;22;20256;-67
2023/06/02 07:16:27;;;;;;;23.23;7.05;;;;;;;12.45;97.38;96675.47;10580808;28;20231;-67
2023/06/02 07:21:27;;;;;;;21.40;7.13;;;;;;;12.00;97.12;96681.31;10598234;27;20224;-68
2023/06/02 07:26:28;;;;;;;28.20;7.13;;;;;;;12.21;93.57;96681.59;10623777;27;20182;-67
2023/06/02 07:31:28;;;;;;;26.65;7.30;;;;;;;11.80;98.00;96696.56;10622873;27;20315;-67
2023/06/02 07:36:29;;;;;;;23.00;6.93;;;;;;;12.43;95.13;96684.50;10624122;27;20217;-67
2023/06/02 07:41:29;;;;;;;21.05;6.53;;;;;;;11.80;94.06;96680.81;10623756;27;20336;-67
2023/06/02 07:46:31;;;;;;;14.65;6.00;;;;;;;12.40;94.15;96690.91;10623819;27;20177;-67
2023/06/02 07:51:32;;;;;;;18.38;6.00;;;;;;;12.92;88.23;96654.56;10623217;27;20663;-67
2023/06/02 07:56:32;;;;;;;22.23;5.78;;;;;;;13.09;87.90;96671.88;10622882;27;20213;-67
2023/06/02 08:01:32;;;;;;;18.15;5.63;;;;;;;13.66;85.50;96672.53;10623166;27;20217;-67
2023/06/02 08:06:34;;;;;;;15.40;5.75;;;;;;;13.32;84.71;96679.00;10621604;27;20435;-67
2023/06/02 08:11:35;;;;;;;19.30;5.30;;;;;;;13.84;83.00;96667.78;10622407;27;20313;-67
2023/06/02 08:16:35;;;;;;;19.80;6.00;;;;;;;13.35;83.86;96676.88;10622571;27;20224;-67
2023/06/02 08:21:36;;;;;;;19.52;6.03;;;;;;;13.30;85.84;96691.50;10622344;27;20296;-68
2023/06/02 08:26:39;;;;;;;26.48;6.28;;;;;;;13.69;83.95;96674.81;10597858;27;20200;-68
2023/06/02 08:31:40;;;;;;;25.05;6.25;;;;;;;14.09;83.72;96683.38;10621632;27;20205;-68
2023/06/02 08:36:42;;;;;;;21.48;5.93;;;;;;;13.55;82.94;96676.41;10620748;27;20712;-68
2023/06/02 08:41:46;;;;;;;19.92;5.22;;;;;;;14.08;81.96;96668.56;10620612;27;20299;-67
2023/06/02 08:46:47;;;;;;;17.77;5.45;;;;;;;14.00;81.71;96681.81;10621122;27;20674;-68
2023/06/02 08:51:51;;;;;;;18.08;4.68;;;;;;;14.63;81.30;96684.97;10619633;27;20200;-68
2023/06/02 08:56:56;;;;;;;26.00;5.47;;;;;;;15.21;76.66;96647.31;10598303;27;20238;-68
2023/06/02 09:01:56;;;;;;;18.02;4.57;;;;;;;15.33;74.44;96640.53;10620448;27;20216;-68
2023/06/02 09:07:23;;;;;;;27.73;5.53;;;;;;;14.56;76.87;96668.19;10619586;27;20694;-68
2023/06/02 09:12:23;;;;;;;20.58;5.60;;;;;;;15.14;76.65;96663.03;10615259;27;20243;-69
2023/06/02 09:17:28;;;;;;;19.88;5.60;;;;;;;15.91;73.33;96640.44;10620252;27;20860;-68
2023/06/02 09:22:29;;;;;;;19.65;5.28;;;;;;;16.27;70.59;96610.38;10619594;27;20221;-67
2023/06/02 09:27:30;;;;;;;18.15;4.53;;;;;;;16.63;68.96;96609.34;10619980;27;20219;-67
2023/06/02 09:32:34;;;;;;;18.65;4.65;;;;;;;16.56;66.95;96579.38;10619617;27;20219;-67
2023/06/02 09:37:52;;;;;;;11.30;4.65;;;;;;;18.40;62.66;96556.03;10619327;27;20247;-67
2023/06/02 09:42:53;;;;;;;14.77;3.85;;;;;;;18.87;58.80;96503.56;10614361;27;20269;-67
2023/06/02 09:47:53;;;;;;;17.75;4.32;;;;;;;18.75;60.06;96534.44;10615406;27;20185;-67
2023/06/02 09:53:11;;;;;;;9.90;3.80;;;;;;;19.52;56.42;96499.00;10596627;27;20220;-67
2023/06/02 09:58:12;;;;;;;17.08;4.35;;;;;;;17.99;59.12;96518.25;10616870;27;20677;-67
2023/06/02 10:03:12;;;;;;;22.58;3.90;;;;;;;19.46;57.21;96521.91;10588615;27;20218;-68
2023/06/02 10:08:44;;;;;;;16.42;3.40;;;;;;;21.50;52.35;96484.41;10534000;28;20191;-68
2023/06/02 10:13:51;;;;;;;15.50;3.95;;;;;;;19.51;55.48;96503.50;10556440;28;20241;-69
2023/06/02 10:19:29;;;;;;;14.35;3.25;;;;;;;19.87;52.84;96470.03;10576231;28;20229;-69
2023/06/02 10:24:41;;;;;;;13.65;3.00;;;;;;;20.19;51.65;96467.22;10575608;28;20197;-68
2023/06/02 10:29:41;;;;;;;15.68;3.88;;;;;;;19.06;52.23;96446.03;10549784;28;20540;-68
2023/06/02 10:34:41;;;;;;;12.65;3.15;;;;;;;17.78;55.28;96490.13;10552324;28;20194;-69
2023/06/02 10:39:42;;;;;;;10.32;2.75;;;;;;;17.11;57.93;96527.25;10545403;28;20221;-69
2023/06/02 10:44:42;;;;;;;5.28;2.25;;;;;;;19.09;55.21;96510.38;10546502;28;20656;-67
2023/06/02 10:49:59;;;;;;;11.57;3.13;;;;;;;19.64;51.27;96449.41;10546389;28;20196;-68
2023/06/02 10:55:11;;;;;;;12.45;2.80;;;;;;;19.34;52.54;96482.00;10533189;28;20651;-68
2023/06/02 11:00:45;;;;;;;10.68;3.63;;;;;;;17.48;59.04;96577.97;10533013;28;20219;-68
2023/06/02 11:05:47;;;;;;;14.48;3.67;;;;;;;17.21;58.72;96560.44;10534655;28;20222;-69
2023/06/02 11:10:58;;;;;;;14.55;3.60;;;;;;;17.75;59.62;96591.22;10540194;28;20270;-68
2023/06/02 11:15:58;;;;;;;10.48;2.83;;;;;;;17.99;57.17;96543.91;10564071;28;20197;-69
2023/06/02 11:21:15;;;;;;;17.98;3.65;;;;;;;18.95;55.00;96525.59;10577072;28;20575;-68
2023/06/02 11:26:20;;;;;;;9.18;2.58;;;;;;;19.05;53.80;96510.81;10579491;28;20208;-68
2023/06/02 11:31:21;;;;;;;17.02;3.50;;;;;;;18.42;54.79;96510.72;10580914;28;20210;-67
2023/06/02 11:36:29;;;;;;;8.88;3.28;;;;;;;18.68;55.12;96533.66;10581333;28;20198;-68
2023/06/02 11:41:29;;;;;;;11.68;3.33;;;;;;;18.75;55.08;96533.66;10581837;28;20564;-68
2023/06/02 11:46:30;;;;;;;13.15;3.25;;;;;;;19.01;54.10;96519.41;10581647;28;20186;-68
2023/06/02 11:51:30;;;;;;;17.88;3.38;;;;;;;18.75;54.21;96520.38;10561539;28;20209;-68
2023/06/02 11:56:31;;;;;;;16.48;3.17;;;;;;;19.03;52.82;96493.47;10581366;28;20635;-69
2023/06/02 12:01:32;;;;;;;13.82;3.25;;;;;;;17.83;56.72;96545.16;10580311;28;20206;-68
2023/06/02 12:06:40;;;;;;;11.40;3.20;;;;;;;17.38;58.09;96574.09;10580824;28;20648;-68
2023/06/02 12:11:40;;;;;;;14.35;3.15;;;;;;;17.89;57.27;96573.50;10562308;28;20297;-68
2023/06/02 12:16:43;;;;;;;13.65;3.10;;;;;;;19.18;53.80;96536.44;10580488;27;20300;-68
2023/06/02 12:21:45;;;;;;;17.67;2.92;;;;;;;19.25;52.37;96515.16;10579025;28;20214;-67
2023/06/02 12:26:46;;;;;;;12.38;3.50;;;;;;;19.86;51.16;96500.34;10579439;28;20197;-67
2023/06/02 12:31:46;;;;;;;17.00;5.28;;;;;;;19.71;50.74;96490.03;10579403;28;20222;-67
2023/06/02 12:36:46;;;;;;;18.27;4.15;;;;;;;20.26;50.77;96513.19;10579248;28;20225;-67
2023/06/02 12:41:47;;;;;;;18.70;3.88;;;;;;;20.16;51.83;96530.69;10578620;28;20214;-68
2023/06/02 12:46:47;;;;;;;11.07;2.90;;;;;;;19.89;51.51;96510.53;10579175;28;20200;-68
2023/06/02 12:51:48;;;;;;;10.88;3.70;;;;;;;20.06;51.00;96504.59;10577074;28;20217;-68
2023/06/02 12:56:48;;;;;;;12.50;3.03;;;;;;;18.55;52.99;96510.69;10578726;28;20283;-68
2023/06/02 13:01:48;;;;;;;17.38;3.78;;;;;;;17.17;56.73;96553.94;10589353;27;20217;-68
2023/06/02 13:06:49;;;;;;;14.43;3.40;;;;;;;17.15;60.52;96641.50;10618336;27;20219;-68
2023/06/02 13:11:49;;;;;;;18.35;3.33;;;;;;;17.14;61.71;96662.88;10620309;22;20237;-65
2023/06/02 13:16:50;;;;;;;12.88;3.30;;;;;;;17.31;61.10;96645.59;10574525;28;20225;-65
2023/06/02 13:21:50;;;;;;;17.42;3.92;;;;;;;16.34;63.38;96663.28;10592999;27;20242;-64
2023/06/02 13:26:51;;;;;;;14.05;3.47;;;;;;;17.29;62.54;96671.47;10588644;27;20190;-63
2023/06/02 13:31:52;;;;;;;12.30;3.28;;;;;;;17.88;60.61;96653.19;10577062;28;20612;-63
2023/06/02 13:36:52;;;;;;;14.75;4.30;;;;;;;16.86;63.06;96666.38;10576842;28;20221;-65
2023/06/02 13:41:53;;;;;;;13.52;3.33;;;;;;;17.14;63.47;96673.47;10576566;28;20214;-64
2023/06/02 13:46:54;;;;;;;15.23;3.88;;;;;;;16.82;62.89;96663.31;10578362;28;20254;-64
2023/06/02 13:51:54;;;;;;;16.50;3.75;;;;;;;16.68;62.12;96654.50;10618235;27;20217;-65
2023/06/02 13:56:55;;;;;;;10.27;3.20;;;;;;;16.20;61.84;96649.16;10618298;27;20212;-63
2023/06/02 14:01:56;;;;;;;8.27;2.85;;;;;;;16.19;62.75;96668.69;10617888;27;20213;-63
2023/06/02 14:06:57;;;;;;;15.38;3.33;;;;;;;16.78;61.41;96656.78;10617152;28;20634;-63
2023/06/02 14:11:57;;;;;;;8.18;2.88;;;;;;;16.65;61.96;96662.03;10618040;28;20268;-63
2023/06/02 14:16:57;;;;;;;13.65;2.92;;;;;;;16.82;61.89;96655.38;10618099;28;20217;-64
2023/06/02 14:21:58;;;;;;;7.32;2.63;;;;;;;16.77;59.10;96587.19;10618358;28;20776;-63
2023/06/02 14:26:58;;;;;;;13.70;3.13;;;;;;;17.94;58.97;96632.00;10616923;28;20185;-65
2023/06/02 14:31:58;;;;;;;9.48;3.03;;;;;;;21.43;49.49;96537.78;10620378;28;20248;-64
2023/06/02 14:36:59;;;;;;;14.67;3.50;;;;;;;21.81;46.35;96456.56;10619377;27;20231;-64
2023/06/02 14:42:00;;;;;;;13.02;3.40;;;;;;;20.58;50.11;96514.81;10626442;27;20462;-64
2023/06/02 14:47:01;;;;;;;10.25;3.38;;;;;;;19.70;52.09;96543.41;10626238;27;20607;-63
2023/06/02 14:52:01;;;;;;;19.30;3.80;;;;;;;18.12;57.66;96619.97;10625880;27;20201;-66
2023/06/02 14:57:05;;;;;;;16.15;3.97;;;;;;;17.23;60.07;96641.31;10625408;27;20708;-64
2023/06/02 15:02:06;;;;;;;16.33;4.22;;;;;;;16.86;62.40;96671.69;10623881;27;20337;-63
2023/06/02 15:07:06;;;;;;;10.77;3.17;;;;;;;16.74;61.16;96645.78;10625641;27;20178;-63
2023/06/02 15:12:06;;;;;;;6.47;3.35;;;;;;;16.75;60.59;96641.31;10624867;27;20672;-63
2023/06/02 15:17:07;;;;;;;8.52;3.30;;;;;;;17.02;59.41;96613.16;10625180;27;20759;-64
2023/06/02 15:22:07;;;;;;;8.35;3.25;;;;;;;17.48;58.28;96608.94;10624956;27;20217;-64
2023/06/02 15:27:08;;;;;;;9.60;3.67;;;;;;;17.64;58.63;96621.81;10624722;27;20253;-65
2023/06/02 15:32:08;;;;;;;9.27;3.55;;;;;;;18.14;56.92;96596.69;10623206;27;20687;-63
2023/06/02 15:37:08;;;;;;;4.55;2.97;;;;;;;20.01;52.38;96557.66;10624030;27;20285;-64
2023/06/02 15:42:09;;;;;;;16.60;3.90;;;;;;;21.60;47.98;96499.81;10624344;27;20220;-64
2023/06/02 15:47:09;;;;;;;12.15;3.80;;;;;;;21.57;46.96;96486.97;10623398;27;20655;-64
2023/06/02 15:52:10;;;;;;;10.38;3.35;;;;;;;19.75;50.71;96512.47;10623561;27;20243;-63
2023/06/02 15:57:10;;;;;;;10.88;4.35;;;;;;;19.07;53.43;96558.38;10620432;27;20219;-63
2023/06/02 16:02:11;;;;;;;9.95;3.58;;;;;;;18.25;55.68;96593.41;10622318;27;20724;-63
2023/06/02 16:07:11;;;;;;;11.65;4.05;;;;;;;17.19;58.90;96623.38;10612410;27;20721;-64
2023/06/02 16:12:12;;;;;;;15.93;3.72;;;;;;;16.45;61.34;96656.63;10623879;27;20232;-63
2023/06/02 16:17:12;;;;;;;7.30;3.78;;;;;;;16.33;62.82;96683.63;10624102;27;20744;-64
2023/06/02 16:22:12;;;;;;;9.52;3.35;;;;;;;16.30;62.42;96677.91;10623546;27;20560;-64
2023/06/02 16:27:13;;;;;;;7.00;3.50;;;;;;;16.03;61.78;96662.69;10623819;27;20545;-64
2023/06/02 16:32:13;;;;;;;7.20;4.05;;;;;;;16.01;60.53;96638.25;10623936;27;20205;-62
2023/06/02 16:37:18;;;;;;;9.63;3.70;;;;;;;15.92;60.54;96633.31;10623659;27;20228;-63
2023/06/02 16:42:18;;;;;;;7.20;3.58;;;;;;;16.21;59.63;96633.09;10622993;27;20217;-64
2023/06/02 16:47:20;;;;;;;8.35;3.00;;;;;;;16.44;59.54;96636.50;10622708;27;20181;-64
2023/06/02 16:52:20;;;;;;;6.53;2.95;;;;;;;17.08;58.09;96628.22;10622793;27;20209;-63
2023/06/02 16:57:20;;;;;;;11.40;3.13;;;;;;;17.08;57.06;96611.53;10622176;27;20698;-63
2023/06/02 17:02:21;;;;;;;6.18;2.47;;;;;;;17.02;57.29;96613.16;10621950;27;20758;-63
2023/06/02 17:07:21;;;;;;;6.88;2.25;;;;;;;17.00;57.48;96619.63;10622032;27;20647;-64
2023/06/02 17:12:21;;;;;;;5.05;2.30;;;;;;;17.04;57.31;96626.19;10621350;27;20324;-63
2023/06/02 17:17:22;;;;;;;4.60;2.22;;;;;;;16.90;58.22;96638.56;10621565;27;20235;-63
2023/06/02 17:22:23;;;;;;;5.03;2.40;;;;;;;16.84;58.94;96652.53;10621023;27;20208;-63
2023/06/02 17:27:23;;;;;;;5.97;2.83;;;;;;;16.73;59.13;96651.28;10621304;27;20186;-63
2023/06/02 17:32:23;;;;;;;7.03;2.80;;;;;;;15.98;60.89;96670.34;10620895;27;20624;-64
2023/06/02 17:37:26;;;;;;;6.97;2.80;;;;;;;16.40;60.65;96679.19;10621153;27;20660;-64
2023/06/02 17:42:27;;;;;;;3.67;2.28;;;;;;;16.15;61.28;96681.44;10620864;27;20232;-65
2023/06/02 17:47:27;;;;;;;8.73;3.00;;;;;;;16.11;61.36;96680.22;10620598;27;20213;-65
2023/06/02 17:52:27;;;;;;;6.32;2.20;;;;;;;15.97;62.78;96700.44;10620268;27;20648;-64
2023/06/02 17:57:28;;;;;;;9.32;2.72;;;;;;;15.56;64.97;96735.38;10619779;27;20593;-65
2023/06/02 18:02:28;;;;;;;8.70;3.20;;;;;;;15.48;65.37;96728.41;10619745;27;20686;-63
2023/06/02 18:07:29;;;;;;;3.88;2.85;;;;;;;15.23;67.10;96764.03;10619659;27;20692;-64
2023/06/02 18:12:30;;;;;;;8.88;4.03;;;;;;;14.32;69.29;96762.34;10622671;27;20657;-63
2023/06/02 18:17:30;;;;;;;7.65;3.42;;;;;;;13.99;72.33;96796.88;10628135;27;20232;-65
2023/06/02 18:22:30;;;;;;;7.15;3.00;;;;;;;12.46;77.16;96832.13;10627917;27;20205;-63
2023/06/02 18:27:31;;;;;;;6.53;2.85;;;;;;;12.26;80.51;96828.19;10628029;27;20204;-63
2023/06/02 18:32:31;;;;;;;6.13;2.97;;;;;;;11.49;87.37;96826.56;10627602;27;20213;-63
2023/06/02 18:37:31;;;;;;;7.38;3.33;;;;;;;11.17;93.32;96829.91;10627546;27;20221;-63
2023/06/02 18:42:32;;;;;;;6.55;3.50;;;;;;;10.65;97.78;96830.75;10627040;27;20205;-62
2023/06/02 18:47:32;;;;;;;5.55;3.33;;;;;;;10.72;100.00;96837.03;10627225;27;20246;-64
2023/06/02 18:52:34;;;;;;;5.32;3.08;;;;;;;10.46;100.00;96837.00;10626674;27;20741;-62
2023/06/02 18:57:35;;;;;;;3.97;2.90;;;;;;;10.08;100.00;96842.41;10608446;27;20585;-63
2023/06/02 19:02:37;;;;;;;4.80;2.90;;;;;;;10.16;100.00;96849.50;10626416;27;20216;-63
2023/06/02 19:07:37;;;;;;;11.50;3.57;;;;;;;9.80;100.00;96846.88;10626579;27;20187;-63
2023/06/02 19:12:37;;;;;;;7.90;3.20;;;;;;;9.76;100.00;96854.19;10626509;22;20234;-67
2023/06/02 19:17:38;;;;;;;5.67;3.30;;;;;;;9.69;100.00;96862.78;10580937;28;20308;-68
2023/06/02 19:22:38;;;;;;;4.73;3.50;;;;;;;9.60;100.00;96872.31;10593214;27;20205;-67
2023/06/02 19:27:39;;;;;;;6.70;4.10;;;;;;;9.49;100.00;96885.63;10626668;27;20215;-67
2023/06/02 19:32:45;;;;;;;7.57;4.07;;;;;;;9.12;100.00;96892.50;10625851;27;20244;-67
2023/06/02 19:37:46;;;;;;;11.57;3.90;;;;;;;9.07;100.00;96908.59;10624828;27;20217;-68
2023/06/02 19:42:46;;;;;;;5.47;3.70;;;;;;;8.80;100.00;96906.75;10623064;27;20296;-68
2023/06/02 19:47:46;;;;;;;4.20;3.67;;;;;;;8.65;100.00;96911.59;10623008;27;20227;-68
2023/06/02 19:52:48;;;;;;;6.40;3.63;;;;;;;8.44;100.00;96914.34;10623281;27;20208;-68
2023/06/02 19:57:49;;;;;;;6.47;3.97;;;;;;;8.31;100.00;96927.63;10624409;27;20633;-68
2023/06/02 20:02:49;;;;;;;8.73;4.10;;;;;;;8.19;100.00;96933.94;10623910;27;20307;-67
2023/06/02 20:07:50;;;;;;;5.77;3.37;;;;;;;8.05;100.00;96940.38;10623465;27;20181;-67
2023/06/02 20:12:50;;;;;;;6.43;3.67;;;;;;;7.94;100.00;96936.13;10623762;27;20233;-67
2023/06/02 20:17:50;;;;;;;7.97;4.33;;;;;;;7.89;100.00;96940.06;10622913;27;20212;-67
2023/06/02 20:22:51;;;;;;;8.57;4.13;;;;;;;7.87;100.00;96950.63;10623589;27;20239;-67
2023/06/02 20:27:51;;;;;;;9.90;4.00;;;;;;;7.88;100.00;96941.88;10623338;27;20185;-67
2023/06/02 20:32:51;;;;;;;9.30;3.67;;;;;;;7.87;100.00;96955.84;10623113;27;20232;-68
2023/06/02 20:37:52;;;;;;;5.97;4.03;;;;;;;7.91;100.00;96959.84;10622742;27;20217;-67
2023/06/02 20:42:52;;;;;;;5.57;3.60;;;;;;;7.95;100.00;96965.66;10622210;27;20216;-67
2023/06/02 20:47:54;;;;;;;20.03;13.00;;;;;;;8.02;100.00;96961.53;10622570;27;20220;-67
2023/06/02 20:52:54;;;;;;;7.60;4.40;;;;;;;8.04;100.00;96962.25;10621927;27;20205;-67
2023/06/02 20:57:54;;;;;;;6.83;3.87;;;;;;;7.96;100.00;96970.75;10622228;27;20765;-68
2023/06/02 21:02:55;;;;;;;5.10;3.63;;;;;;;7.96;100.00;96975.09;10621228;27;20201;-67
2023/06/02 21:07:55;;;;;;;7.60;3.50;;;;;;;7.85;100.00;96974.25;10620769;27;20193;-68
2023/06/02 21:12:56;;;;;;;6.57;3.50;;;;;;;7.72;100.00;96978.06;10621368;27;20232;-68
2023/06/02 21:17:56;;;;;;;4.27;3.17;;;;;;;7.56;100.00;96971.53;10620038;27;20251;-67
2023/06/02 21:22:56;;;;;;;5.97;3.17;;;;;;;7.45;100.00;96984.69;10620370;27;20254;-67
2023/06/02 21:27:57;;;;;;;6.37;3.13;;;;;;;7.24;100.00;96984.69;10620567;27;20192;-67
2023/06/02 21:32:57;;;;;;;6.83;3.63;;;;;;;6.99;100.00;96980.72;10620271;27;20217;-67
2023/06/02 21:37:57;;;;;;;4.93;2.87;;;;;;;6.85;100.00;96980.09;10620568;27;20312;-67
2023/06/02 21:42:58;;;;;;;4.33;2.87;;;;;;;6.66;100.00;96983.38;10620699;27;20201;-66
2023/06/02 21:47:58;;;;;;;4.97;2.67;;;;;;;6.54;100.00;96989.56;10620338;27;20229;-67
2023/06/02 21:52:58;;;;;;;3.93;2.70;;;;;;;6.40;100.00;96988.06;10620379;27;20258;-67
2023/06/02 21:57:59;;;;;;;3.83;2.67;;;;;;;6.31;100.00;96981.84;10620416;27;20220;-67
2023/06/02 22:02:59;;;;;;;3.93;2.40;;;;;;;6.13;100.00;96983.31;10620308;27;20217;-67
2023/06/02 22:07:59;;;;;;;6.43;2.50;;;;;;;5.96;100.00;96982.84;10620305;27;20553;-66
2023/06/02 22:13:00;;;;;;;3.27;2.47;;;;;;;5.84;100.00;96989.81;10619856;28;20714;-66
2023/06/02 22:18:00;;;;;;;4.13;2.33;;;;;;;5.79;100.00;96994.56;10619904;28;20239;-67
2023/06/02 22:23:01;;;;;;;8.50;2.23;;;;;;;5.75;100.00;96994.94;10619805;28;20298;-66
2023/06/02 22:28:01;;;;;;;4.17;2.57;;;;;;;5.72;100.00;96993.38;10619846;28;20185;-67
2023/06/02 22:33:01;;;;;;;9.07;2.60;;;;;;;5.69;100.00;96997.03;10619678;28;20209;-67
2023/06/02 22:38:02;;;;;;;4.53;2.40;;;;;;;5.66;100.00;96994.69;10619622;28;20284;-66
2023/06/02 22:43:02;;;;;;;4.07;2.33;;;;;;;5.57;100.00;96997.19;10619571;28;20225;-66
2023/06/02 22:48:03;;;;;;;2.73;1.90;;;;;;;5.49;100.00;97001.19;10619375;28;20173;-67
2023/06/02 22:53:03;;;;;;;5.10;2.33;;;;;;;5.39;100.00;97000.25;10619562;28;20687;-67
2023/06/02 22:58:04;;;;;;;5.80;2.47;;;;;;;5.24;100.00;97003.97;10620124;27;20220;-66
2023/06/02 23:03:04;;;;;;;6.13;1.90;;;;;;;5.17;100.00;97003.63;10627316;27;20201;-68
2023/06/02 23:08:04;;;;;;;8.13;2.07;;;;;;;5.10;100.00;97003.28;10627008;27;20655;-68
2023/06/02 23:13:05;;;;;;;4.10;1.87;;;;;;;4.98;100.00;96999.00;10626470;27;20229;-67